METAR Data
IDs: Format: Raw Decoded Include TAF

Data at: 2333 UTC 26 Feb 2020

PTPN 262257Z 07006KT 15SM BKN018TCU OVC300 30/26 A2983 RMK TCU NE-SW